Danbury, New Hampshire
Current Conditions -  °F | °C
As of 9:55 AM on Thursday 27 Nov 2014 (Local Time) from K1P1 Reporting Station
Clear Clear  
Wind Chill: -5°   Ceiling: Unl
Heat Index:   Visibility: 10mi
Dew Point: -3°   Wind: 9mph
Humidity: 83%   Direction: 270°W
Pressure: 29.91"   Gusts: 17mph
Location:  43.53°N, 71.86°W
Report Text: K1P1 271455Z AUTO 27008G15KT 10SM CLR 00/M03 A2991 RMK AO2 T10051030
Loading
Personal Weather Stations






























Interactive Weather Map New forecast layout! Learn more

10-Day Weather Forecast

Advertisements
Track Severe Weather on mobile